sensor_id;sensor_type;location;lat;lon;timestamp;P1;durP1;ratioP1;P2;durP2;ratioP2
20324;SDS011;10320;49.482;11.256;2023-05-29T00:02:20;4.03;;;3.43;;
20324;SDS011;10320;49.482;11.256;2023-05-29T00:04:46;4.30;;;3.50;;
20324;SDS011;10320;49.482;11.256;2023-05-29T00:07:12;5.97;;;3.50;;
20324;SDS011;10320;49.482;11.256;2023-05-29T00:09:38;4.70;;;3.43;;
20324;SDS011;10320;49.482;11.256;2023-05-29T00:12:05;5.33;;;3.30;;
20324;SDS011;10320;49.482;11.256;2023-05-29T00:14:31;4.63;;;3.70;;
20324;SDS011;10320;49.482;11.256;2023-05-29T00:16:57;5.70;;;3.60;;
20324;SDS011;10320;49.482;11.256;2023-05-29T00:19:23;5.13;;;3.50;;
20324;SDS011;10320;49.482;11.256;2023-05-29T00:21:50;4.47;;;3.30;;
20324;SDS011;10320;49.482;11.256;2023-05-29T00:24:16;3.90;;;3.23;;
20324;SDS011;10320;49.482;11.256;2023-05-29T00:26:42;3.40;;;3.10;;
20324;SDS011;10320;49.482;11.256;2023-05-29T00:29:08;4.60;;;3.20;;
20324;SDS011;10320;49.482;11.256;2023-05-29T00:31:35;5.40;;;3.10;;
20324;SDS011;10320;49.482;11.256;2023-05-29T00:34:04;4.37;;;3.07;;
20324;SDS011;10320;49.482;11.256;2023-05-29T00:36:30;4.43;;;3.13;;
20324;SDS011;10320;49.482;11.256;2023-05-29T00:38:56;6.47;;;3.50;;
20324;SDS011;10320;49.482;11.256;2023-05-29T00:41:22;4.80;;;3.33;;
20324;SDS011;10320;49.482;11.256;2023-05-29T00:43:48;4.47;;;3.47;;
20324;SDS011;10320;49.482;11.256;2023-05-29T00:46:14;4.27;;;3.40;;
20324;SDS011;10320;49.482;11.256;2023-05-29T00:48:41;5.03;;;3.80;;
20324;SDS011;10320;49.482;11.256;2023-05-29T00:51:08;5.53;;;3.67;;
20324;SDS011;10320;49.482;11.256;2023-05-29T00:53:34;3.60;;;3.30;;
20324;SDS011;10320;49.482;11.256;2023-05-29T00:56:00;4.10;;;3.10;;
20324;SDS011;10320;49.482;11.256;2023-05-29T00:58:27;5.70;;;3.30;;
20324;SDS011;10320;49.482;11.256;2023-05-29T01:00:53;4.70;;;3.37;;
20324;SDS011;10320;49.482;11.256;2023-05-29T01:03:19;3.70;;;3.10;;
20324;SDS011;10320;49.482;11.256;2023-05-29T01:05:47;4.17;;;3.33;;
20324;SDS011;10320;49.482;11.256;2023-05-29T01:08:14;3.87;;;3.43;;
20324;SDS011;10320;49.482;11.256;2023-05-29T01:10:40;5.80;;;3.60;;
20324;SDS011;10320;49.482;11.256;2023-05-29T01:13:11;3.53;;;3.23;;
20324;SDS011;10320;49.482;11.256;2023-05-29T01:15:43;5.50;;;3.33;;
20324;SDS011;10320;49.482;11.256;2023-05-29T01:20:48;6.50;;;3.87;;
20324;SDS011;10320;49.482;11.256;2023-05-29T01:28:31;4.20;;;3.67;;
20324;SDS011;10320;49.482;11.256;2023-05-29T01:30:58;5.20;;;3.67;;
20324;SDS011;10320;49.482;11.256;2023-05-29T01:33:26;4.40;;;3.63;;
20324;SDS011;10320;49.482;11.256;2023-05-29T01:35:52;4.33;;;3.43;;
20324;SDS011;10320;49.482;11.256;2023-05-29T01:38:18;5.17;;;3.80;;
20324;SDS011;10320;49.482;11.256;2023-05-29T01:40:44;3.63;;;3.33;;
20324;SDS011;10320;49.482;11.256;2023-05-29T01:43:11;6.67;;;3.90;;
20324;SDS011;10320;49.482;11.256;2023-05-29T01:45:38;5.57;;;3.87;;
20324;SDS011;10320;49.482;11.256;2023-05-29T01:48:04;5.43;;;4.10;;
20324;SDS011;10320;49.482;11.256;2023-05-29T01:50:30;5.87;;;3.50;;
20324;SDS011;10320;49.482;11.256;2023-05-29T01:52:57;4.30;;;3.70;;
20324;SDS011;10320;49.482;11.256;2023-05-29T01:55:23;3.83;;;3.20;;
20324;SDS011;10320;49.482;11.256;2023-05-29T01:57:49;6.73;;;4.03;;
20324;SDS011;10320;49.482;11.256;2023-05-29T02:00:16;7.00;;;3.97;;
20324;SDS011;10320;49.482;11.256;2023-05-29T02:02:44;6.37;;;3.90;;
20324;SDS011;10320;49.482;11.256;2023-05-29T02:05:10;5.60;;;3.77;;
20324;SDS011;10320;49.482;11.256;2023-05-29T02:07:36;4.80;;;3.57;;
20324;SDS011;10320;49.482;11.256;2023-05-29T02:10:06;4.60;;;3.60;;
20324;SDS011;10320;49.482;11.256;2023-05-29T02:12:32;5.63;;;3.70;;
20324;SDS011;10320;49.482;11.256;2023-05-29T02:14:58;6.63;;;3.97;;
20324;SDS011;10320;49.482;11.256;2023-05-29T02:17:24;6.17;;;3.90;;
20324;SDS011;10320;49.482;11.256;2023-05-29T02:19:50;4.70;;;3.40;;
20324;SDS011;10320;49.482;11.256;2023-05-29T02:22:17;4.90;;;3.80;;
20324;SDS011;10320;49.482;11.256;2023-05-29T02:24:43;4.37;;;3.37;;
20324;SDS011;10320;49.482;11.256;2023-05-29T02:27:09;4.77;;;3.70;;
20324;SDS011;10320;49.482;11.256;2023-05-29T02:29:35;4.60;;;4.13;;
20324;SDS011;10320;49.482;11.256;2023-05-29T02:32:01;4.67;;;4.00;;
20324;SDS011;10320;49.482;11.256;2023-05-29T02:34:27;6.60;;;4.00;;
20324;SDS011;10320;49.482;11.256;2023-05-29T02:36:54;4.70;;;4.17;;
20324;SDS011;10320;49.482;11.256;2023-05-29T02:39:20;6.37;;;3.97;;
20324;SDS011;10320;49.482;11.256;2023-05-29T02:41:46;5.10;;;4.03;;
20324;SDS011;10320;49.482;11.256;2023-05-29T02:44:12;4.90;;;4.00;;
20324;SDS011;10320;49.482;11.256;2023-05-29T02:46:38;5.00;;;4.00;;
20324;SDS011;10320;49.482;11.256;2023-05-29T02:49:04;5.27;;;4.03;;
20324;SDS011;10320;49.482;11.256;2023-05-29T02:51:30;4.67;;;3.80;;
20324;SDS011;10320;49.482;11.256;2023-05-29T02:53:57;6.13;;;3.80;;
20324;SDS011;10320;49.482;11.256;2023-05-29T02:56:23;8.73;;;4.07;;
20324;SDS011;10320;49.482;11.256;2023-05-29T02:58:52;6.50;;;4.00;;
20324;SDS011;10320;49.482;11.256;2023-05-29T03:01:18;6.07;;;4.07;;
20324;SDS011;10320;49.482;11.256;2023-05-29T03:03:44;5.17;;;3.80;;
20324;SDS011;10320;49.482;11.256;2023-05-29T03:06:10;6.03;;;4.40;;
20324;SDS011;10320;49.482;11.256;2023-05-29T03:08:37;5.67;;;4.33;;
20324;SDS011;10320;49.482;11.256;2023-05-29T03:11:10;6.30;;;3.83;;
20324;SDS011;10320;49.482;11.256;2023-05-29T03:13:36;6.43;;;4.33;;
20324;SDS011;10320;49.482;11.256;2023-05-29T03:16:02;5.37;;;4.20;;
20324;SDS011;10320;49.482;11.256;2023-05-29T03:18:28;4.60;;;4.10;;
20324;SDS011;10320;49.482;11.256;2023-05-29T03:20:54;7.03;;;3.90;;
20324;SDS011;10320;49.482;11.256;2023-05-29T03:23:21;4.57;;;4.13;;
20324;SDS011;10320;49.482;11.256;2023-05-29T03:25:47;4.43;;;3.63;;
20324;SDS011;10320;49.482;11.256;2023-05-29T03:28:13;6.93;;;4.43;;
20324;SDS011;10320;49.482;11.256;2023-05-29T03:30:39;5.90;;;4.43;;
20324;SDS011;10320;49.482;11.256;2023-05-29T03:33:05;4.97;;;3.80;;
20324;SDS011;10320;49.482;11.256;2023-05-29T03:35:31;4.93;;;3.70;;
20324;SDS011;10320;49.482;11.256;2023-05-29T03:37:57;5.00;;;4.50;;
20324;SDS011;10320;49.482;11.256;2023-05-29T03:40:23;5.53;;;4.20;;
20324;SDS011;10320;49.482;11.256;2023-05-29T03:42:49;5.50;;;4.00;;
20324;SDS011;10320;49.482;11.256;2023-05-29T03:45:15;4.93;;;4.07;;
20324;SDS011;10320;49.482;11.256;2023-05-29T03:47:41;5.10;;;4.10;;
20324;SDS011;10320;49.482;11.256;2023-05-29T03:50:07;4.30;;;3.77;;
20324;SDS011;10320;49.482;11.256;2023-05-29T03:52:34;5.23;;;3.70;;
20324;SDS011;10320;49.482;11.256;2023-05-29T03:55:00;3.67;;;3.37;;
20324;SDS011;10320;49.482;11.256;2023-05-29T03:57:26;5.30;;;4.33;;
20324;SDS011;10320;49.482;11.256;2023-05-29T03:59:52;6.17;;;4.00;;
20324;SDS011;10320;49.482;11.256;2023-05-29T04:02:18;5.40;;;4.20;;
20324;SDS011;10320;49.482;11.256;2023-05-29T04:04:44;6.97;;;4.07;;
20324;SDS011;10320;49.482;11.256;2023-05-29T04:07:10;4.40;;;3.97;;
20324;SDS011;10320;49.482;11.256;2023-05-29T04:09:36;4.73;;;3.60;;
20324;SDS011;10320;49.482;11.256;2023-05-29T04:12:03;4.93;;;3.80;;
20324;SDS011;10320;49.482;11.256;2023-05-29T04:14:30;5.67;;;4.00;;
20324;SDS011;10320;49.482;11.256;2023-05-29T04:16:56;5.33;;;4.17;;
20324;SDS011;10320;49.482;11.256;2023-05-29T04:19:22;6.13;;;4.20;;
20324;SDS011;10320;49.482;11.256;2023-05-29T04:21:48;7.93;;;4.40;;
20324;SDS011;10320;49.482;11.256;2023-05-29T04:24:14;6.03;;;4.20;;
20324;SDS011;10320;49.482;11.256;2023-05-29T04:26:41;5.07;;;3.53;;
20324;SDS011;10320;49.482;11.256;2023-05-29T04:29:08;5.50;;;4.13;;
20324;SDS011;10320;49.482;11.256;2023-05-29T04:31:34;5.33;;;3.93;;
20324;SDS011;10320;49.482;11.256;2023-05-29T04:34:02;4.60;;;4.13;;
20324;SDS011;10320;49.482;11.256;2023-05-29T04:36:29;5.07;;;4.10;;
20324;SDS011;10320;49.482;11.256;2023-05-29T04:38:57;4.80;;;3.70;;
20324;SDS011;10320;49.482;11.256;2023-05-29T04:41:23;4.33;;;3.80;;
20324;SDS011;10320;49.482;11.256;2023-05-29T04:43:54;5.53;;;4.10;;
20324;SDS011;10320;49.482;11.256;2023-05-29T04:46:21;5.80;;;3.80;;
20324;SDS011;10320;49.482;11.256;2023-05-29T04:48:47;4.43;;;4.00;;
20324;SDS011;10320;49.482;11.256;2023-05-29T04:51:18;5.33;;;4.17;;
20324;SDS011;10320;49.482;11.256;2023-05-29T04:53:45;4.23;;;3.83;;
20324;SDS011;10320;49.482;11.256;2023-05-29T04:56:11;5.00;;;3.73;;
20324;SDS011;10320;49.482;11.256;2023-05-29T04:58:37;4.17;;;3.77;;
20324;SDS011;10320;49.482;11.256;2023-05-29T05:01:04;4.70;;;3.83;;
20324;SDS011;10320;49.482;11.256;2023-05-29T05:03:30;5.40;;;3.80;;
20324;SDS011;10320;49.482;11.256;2023-05-29T05:05:58;4.83;;;3.83;;
20324;SDS011;10320;49.482;11.256;2023-05-29T05:08:24;3.90;;;3.50;;
20324;SDS011;10320;49.482;11.256;2023-05-29T05:10:50;4.20;;;3.73;;
20324;SDS011;10320;49.482;11.256;2023-05-29T05:13:16;5.37;;;3.97;;
20324;SDS011;10320;49.482;11.256;2023-05-29T05:15:42;4.60;;;3.77;;
20324;SDS011;10320;49.482;11.256;2023-05-29T05:18:08;5.10;;;3.73;;
20324;SDS011;10320;49.482;11.256;2023-05-29T05:20:34;5.93;;;3.80;;
20324;SDS011;10320;49.482;11.256;2023-05-29T05:23:00;6.93;;;3.97;;
20324;SDS011;10320;49.482;11.256;2023-05-29T05:25:26;5.60;;;4.00;;
20324;SDS011;10320;49.482;11.256;2023-05-29T05:27:52;4.77;;;3.20;;
20324;SDS011;10320;49.482;11.256;2023-05-29T05:30:18;4.67;;;3.77;;
20324;SDS011;10320;49.482;11.256;2023-05-29T05:32:45;4.20;;;3.50;;
20324;SDS011;10320;49.482;11.256;2023-05-29T05:35:11;5.73;;;3.50;;
20324;SDS011;10320;49.482;11.256;2023-05-29T05:37:37;4.43;;;3.43;;
20324;SDS011;10320;49.482;11.256;2023-05-29T05:40:04;5.27;;;3.73;;
20324;SDS011;10320;49.482;11.256;2023-05-29T05:42:31;5.50;;;3.43;;
20324;SDS011;10320;49.482;11.256;2023-05-29T05:44:58;3.90;;;3.30;;
20324;SDS011;10320;49.482;11.256;2023-05-29T05:47:24;4.47;;;3.80;;
20324;SDS011;10320;49.482;11.256;2023-05-29T05:49:50;4.23;;;3.23;;
20324;SDS011;10320;49.482;11.256;2023-05-29T05:52:16;4.47;;;3.50;;
20324;SDS011;10320;49.482;11.256;2023-05-29T05:54:43;5.50;;;3.50;;
20324;SDS011;10320;49.482;11.256;2023-05-29T05:57:09;4.43;;;3.63;;
20324;SDS011;10320;49.482;11.256;2023-05-29T05:59:35;4.40;;;3.33;;
20324;SDS011;10320;49.482;11.256;2023-05-29T06:02:01;3.53;;;3.23;;
20324;SDS011;10320;49.482;11.256;2023-05-29T06:04:28;4.27;;;3.60;;
20324;SDS011;10320;49.482;11.256;2023-05-29T06:06:54;5.07;;;3.37;;
20324;SDS011;10320;49.482;11.256;2023-05-29T06:09:22;4.00;;;3.50;;
20324;SDS011;10320;49.482;11.256;2023-05-29T06:11:48;4.28;;;3.15;;
20324;SDS011;10320;49.482;11.256;2023-05-29T06:14:15;5.00;;;3.07;;
20324;SDS011;10320;49.482;11.256;2023-05-29T06:16:41;5.80;;;3.60;;
20324;SDS011;10320;49.482;11.256;2023-05-29T06:19:08;4.88;;;3.40;;
20324;SDS011;10320;49.482;11.256;2023-05-29T06:21:34;3.90;;;3.30;;
20324;SDS011;10320;49.482;11.256;2023-05-29T06:24:00;4.13;;;3.07;;
20324;SDS011;10320;49.482;11.256;2023-05-29T06:26:26;5.03;;;3.43;;
20324;SDS011;10320;49.482;11.256;2023-05-29T06:28:52;3.70;;;2.90;;
20324;SDS011;10320;49.482;11.256;2023-05-29T06:31:18;4.07;;;3.65;;
20324;SDS011;10320;49.482;11.256;2023-05-29T06:33:45;3.53;;;3.13;;
20324;SDS011;10320;49.482;11.256;2023-05-29T06:36:11;4.37;;;3.47;;
20324;SDS011;10320;49.482;11.256;2023-05-29T06:38:37;4.35;;;3.30;;
20324;SDS011;10320;49.482;11.256;2023-05-29T06:41:03;3.88;;;3.30;;
20324;SDS011;10320;49.482;11.256;2023-05-29T06:43:29;4.07;;;3.50;;
20324;SDS011;10320;49.482;11.256;2023-05-29T06:45:55;4.32;;;3.50;;
20324;SDS011;10320;49.482;11.256;2023-05-29T06:48:21;3.33;;;3.00;;
20324;SDS011;10320;49.482;11.256;2023-05-29T06:50:47;4.05;;;3.20;;
20324;SDS011;10320;49.482;11.256;2023-05-29T06:53:13;4.97;;;3.47;;
20324;SDS011;10320;49.482;11.256;2023-05-29T06:55:39;3.97;;;3.30;;
20324;SDS011;10320;49.482;11.256;2023-05-29T06:58:05;4.55;;;3.22;;
20324;SDS011;10320;49.482;11.256;2023-05-29T07:00:32;4.32;;;3.42;;
20324;SDS011;10320;49.482;11.256;2023-05-29T07:02:58;4.03;;;3.25;;
20324;SDS011;10320;49.482;11.256;2023-05-29T07:05:24;4.70;;;3.45;;
20324;SDS011;10320;49.482;11.256;2023-05-29T07:07:50;5.25;;;3.05;;
20324;SDS011;10320;49.482;11.256;2023-05-29T07:10:16;3.45;;;3.15;;
20324;SDS011;10320;49.482;11.256;2023-05-29T07:12:42;3.05;;;2.75;;
20324;SDS011;10320;49.482;11.256;2023-05-29T07:15:08;3.22;;;2.90;;
20324;SDS011;10320;49.482;11.256;2023-05-29T07:17:34;4.75;;;3.13;;
20324;SDS011;10320;49.482;11.256;2023-05-29T07:20:00;3.47;;;3.05;;
20324;SDS011;10320;49.482;11.256;2023-05-29T07:22:26;3.10;;;2.80;;
20324;SDS011;10320;49.482;11.256;2023-05-29T07:24:52;3.38;;;3.08;;
20324;SDS011;10320;49.482;11.256;2023-05-29T07:27:18;5.00;;;3.20;;
20324;SDS011;10320;49.482;11.256;2023-05-29T07:29:44;4.00;;;3.40;;
20324;SDS011;10320;49.482;11.256;2023-05-29T07:32:10;4.95;;;3.80;;
20324;SDS011;10320;49.482;11.256;2023-05-29T07:34:36;5.00;;;3.20;;
20324;SDS011;10320;49.482;11.256;2023-05-29T07:37:03;4.22;;;3.47;;
20324;SDS011;10320;49.482;11.256;2023-05-29T07:39:29;3.30;;;2.92;;
20324;SDS011;10320;49.482;11.256;2023-05-29T07:41:56;4.03;;;3.08;;
20324;SDS011;10320;49.482;11.256;2023-05-29T07:44:22;3.60;;;3.20;;
20324;SDS011;10320;49.482;11.256;2023-05-29T07:46:48;3.33;;;3.03;;
20324;SDS011;10320;49.482;11.256;2023-05-29T07:49:14;5.10;;;3.10;;
20324;SDS011;10320;49.482;11.256;2023-05-29T07:51:40;4.65;;;3.22;;
20324;SDS011;10320;49.482;11.256;2023-05-29T07:54:06;3.42;;;3.13;;
20324;SDS011;10320;49.482;11.256;2023-05-29T07:56:32;3.40;;;2.80;;
20324;SDS011;10320;49.482;11.256;2023-05-29T07:58:59;4.53;;;3.00;;
20324;SDS011;10320;49.482;11.256;2023-05-29T08:01:25;3.60;;;2.67;;
20324;SDS011;10320;49.482;11.256;2023-05-29T08:03:52;4.15;;;2.78;;
20324;SDS011;10320;49.482;11.256;2023-05-29T08:06:18;4.72;;;2.97;;
20324;SDS011;10320;49.482;11.256;2023-05-29T08:08:44;3.05;;;2.72;;
20324;SDS011;10320;49.482;11.256;2023-05-29T08:11:10;3.97;;;2.90;;
20324;SDS011;10320;49.482;11.256;2023-05-29T08:13:36;2.75;;;2.47;;
20324;SDS011;10320;49.482;11.256;2023-05-29T08:16:03;4.10;;;2.97;;
20324;SDS011;10320;49.482;11.256;2023-05-29T08:18:30;5.10;;;3.08;;
20324;SDS011;10320;49.482;11.256;2023-05-29T08:20:56;4.35;;;2.80;;
20324;SDS011;10320;49.482;11.256;2023-05-29T08:23:22;4.97;;;3.30;;
20324;SDS011;10320;49.482;11.256;2023-05-29T08:25:48;3.60;;;2.88;;
20324;SDS011;10320;49.482;11.256;2023-05-29T08:28:14;3.15;;;2.85;;
20324;SDS011;10320;49.482;11.256;2023-05-29T08:30:41;4.35;;;2.67;;
20324;SDS011;10320;49.482;11.256;2023-05-29T08:33:07;3.00;;;2.60;;
20324;SDS011;10320;49.482;11.256;2023-05-29T08:35:33;3.13;;;2.83;;
20324;SDS011;10320;49.482;11.256;2023-05-29T08:37:59;3.08;;;2.78;;
20324;SDS011;10320;49.482;11.256;2023-05-29T08:40:25;4.90;;;3.10;;
20324;SDS011;10320;49.482;11.256;2023-05-29T08:45:20;3.13;;;2.75;;
20324;SDS011;10320;49.482;11.256;2023-05-29T08:47:49;3.28;;;2.42;;
20324;SDS011;10320;49.482;11.256;2023-05-29T08:50:17;4.38;;;2.83;;
20324;SDS011;10320;49.482;11.256;2023-05-29T08:52:44;3.53;;;2.85;;
20324;SDS011;10320;49.482;11.256;2023-05-29T08:55:10;4.45;;;2.90;;
20324;SDS011;10320;49.482;11.256;2023-05-29T08:57:37;3.17;;;2.88;;
20324;SDS011;10320;49.482;11.256;2023-05-29T09:00:04;3.88;;;2.70;;
20324;SDS011;10320;49.482;11.256;2023-05-29T09:02:37;5.68;;;3.33;;
20324;SDS011;10320;49.482;11.256;2023-05-29T09:05:03;4.40;;;2.55;;
20324;SDS011;10320;49.482;11.256;2023-05-29T09:07:31;3.30;;;3.00;;
20324;SDS011;10320;49.482;11.256;2023-05-29T09:09:57;2.42;;;2.22;;
20324;SDS011;10320;49.482;11.256;2023-05-29T09:12:23;5.20;;;2.83;;
20324;SDS011;10320;49.482;11.256;2023-05-29T09:14:50;3.17;;;2.80;;
20324;SDS011;10320;49.482;11.256;2023-05-29T09:17:16;4.28;;;2.95;;
20324;SDS011;10320;49.482;11.256;2023-05-29T09:19:42;3.33;;;3.00;;
20324;SDS011;10320;49.482;11.256;2023-05-29T09:22:10;3.47;;;2.78;;
20324;SDS011;10320;49.482;11.256;2023-05-29T09:24:46;2.95;;;2.65;;
20324;SDS011;10320;49.482;11.256;2023-05-29T09:27:12;5.07;;;2.83;;
20324;SDS011;10320;49.482;11.256;2023-05-29T09:29:39;5.13;;;3.15;;
20324;SDS011;10320;49.482;11.256;2023-05-29T09:32:14;4.10;;;2.75;;
20324;SDS011;10320;49.482;11.256;2023-05-29T09:34:41;3.75;;;2.78;;
20324;SDS011;10320;49.482;11.256;2023-05-29T09:37:08;4.30;;;2.75;;
20324;SDS011;10320;49.482;11.256;2023-05-29T09:39:55;3.65;;;2.70;;
20324;SDS011;10320;49.482;11.256;2023-05-29T09:42:21;3.80;;;2.85;;
20324;SDS011;10320;49.482;11.256;2023-05-29T09:44:50;4.50;;;3.00;;
20324;SDS011;10320;49.482;11.256;2023-05-29T09:47:17;3.92;;;2.80;;
20324;SDS011;10320;49.482;11.256;2023-05-29T09:49:44;4.25;;;2.97;;
20324;SDS011;10320;49.482;11.256;2023-05-29T09:52:11;3.95;;;3.13;;
20324;SDS011;10320;49.482;11.256;2023-05-29T09:54:41;3.50;;;3.00;;
20324;SDS011;10320;49.482;11.256;2023-05-29T09:57:10;4.80;;;2.70;;
20324;SDS011;10320;49.482;11.256;2023-05-29T09:59:36;2.60;;;2.40;;
20324;SDS011;10320;49.482;11.256;2023-05-29T10:02:03;2.92;;;2.67;;
20324;SDS011;10320;49.482;11.256;2023-05-29T10:04:32;3.40;;;3.10;;
20324;SDS011;10320;49.482;11.256;2023-05-29T10:07:07;3.00;;;2.45;;
20324;SDS011;10320;49.482;11.256;2023-05-29T10:09:35;2.92;;;2.53;;
20324;SDS011;10320;49.482;11.256;2023-05-29T10:12:04;2.97;;;2.33;;
20324;SDS011;10320;49.482;11.256;2023-05-29T10:14:32;2.72;;;2.50;;
20324;SDS011;10320;49.482;11.256;2023-05-29T10:16:59;3.05;;;2.60;;
20324;SDS011;10320;49.482;11.256;2023-05-29T10:19:28;4.80;;;2.67;;
20324;SDS011;10320;49.482;11.256;2023-05-29T10:21:55;2.95;;;2.65;;
20324;SDS011;10320;49.482;11.256;2023-05-29T10:24:22;3.35;;;2.80;;
20324;SDS011;10320;49.482;11.256;2023-05-29T10:26:49;3.47;;;2.63;;
20324;SDS011;10320;49.482;11.256;2023-05-29T10:32:05;4.30;;;3.30;;
20324;SDS011;10320;49.482;11.256;2023-05-29T10:38:13;3.88;;;2.47;;
20324;SDS011;10320;49.482;11.256;2023-05-29T10:40:08;3.60;;;2.20;;
20324;SDS011;10320;49.482;11.256;2023-05-29T10:42:41;3.05;;;2.30;;
20324;SDS011;10320;49.482;11.256;2023-05-29T10:45:11;4.18;;;2.38;;
20324;SDS011;10320;49.482;11.256;2023-05-29T10:50:47;3.40;;;2.42;;
20324;SDS011;10320;49.482;11.256;2023-05-29T10:53:15;2.85;;;2.65;;
20324;SDS011;10320;49.482;11.256;2023-05-29T10:56:02;2.75;;;2.50;;
20324;SDS011;10320;49.482;11.256;2023-05-29T10:58:30;3.78;;;2.33;;
20324;SDS011;10320;49.482;11.256;2023-05-29T11:00:57;3.40;;;2.47;;
20324;SDS011;10320;49.482;11.256;2023-05-29T11:03:30;3.33;;;2.78;;
20324;SDS011;10320;49.482;11.256;2023-05-29T11:08:32;3.17;;;2.75;;
20324;SDS011;10320;49.482;11.256;2023-05-29T11:10:59;2.55;;;2.35;;
20324;SDS011;10320;49.482;11.256;2023-05-29T11:13:26;2.60;;;2.40;;
20324;SDS011;10320;49.482;11.256;2023-05-29T11:18:45;2.85;;;2.60;;
20324;SDS011;10320;49.482;11.256;2023-05-29T11:23:53;3.17;;;2.88;;
20324;SDS011;10320;49.482;11.256;2023-05-29T11:26:20;5.20;;;3.20;;
20324;SDS011;10320;49.482;11.256;2023-05-29T11:28:49;3.05;;;2.70;;
20324;SDS011;10320;49.482;11.256;2023-05-29T11:31:15;2.90;;;2.55;;
20324;SDS011;10320;49.482;11.256;2023-05-29T11:33:48;2.60;;;2.40;;
20324;SDS011;10320;49.482;11.256;2023-05-29T11:36:16;3.28;;;2.45;;
20324;SDS011;10320;49.482;11.256;2023-05-29T11:38:43;3.55;;;2.25;;
20324;SDS011;10320;49.482;11.256;2023-05-29T11:41:09;2.85;;;2.55;;
20324;SDS011;10320;49.482;11.256;2023-05-29T11:43:35;2.90;;;2.58;;
20324;SDS011;10320;49.482;11.256;2023-05-29T11:46:01;3.08;;;2.60;;
20324;SDS011;10320;49.482;11.256;2023-05-29T11:48:27;3.05;;;2.47;;
20324;SDS011;10320;49.482;11.256;2023-05-29T11:50:53;2.58;;;2.10;;
20324;SDS011;10320;49.482;11.256;2023-05-29T11:53:19;2.50;;;2.30;;
20324;SDS011;10320;49.482;11.256;2023-05-29T11:55:45;3.50;;;2.25;;
20324;SDS011;10320;49.482;11.256;2023-05-29T11:58:11;2.53;;;2.30;;
20324;SDS011;10320;49.482;11.256;2023-05-29T12:00:38;3.28;;;2.28;;
20324;SDS011;10320;49.482;11.256;2023-05-29T12:03:06;2.42;;;2.22;;
20324;SDS011;10320;49.482;11.256;2023-05-29T12:05:53;2.70;;;2.50;;
20324;SDS011;10320;49.482;11.256;2023-05-29T12:08:23;2.63;;;2.38;;
20324;SDS011;10320;49.482;11.256;2023-05-29T12:10:50;2.65;;;2.28;;
20324;SDS011;10320;49.482;11.256;2023-05-29T12:13:18;3.17;;;2.38;;
20324;SDS011;10320;49.482;11.256;2023-05-29T12:15:44;4.13;;;2.55;;
20324;SDS011;10320;49.482;11.256;2023-05-29T12:18:11;3.00;;;2.45;;
20324;SDS011;10320;49.482;11.256;2023-05-29T12:20:37;3.15;;;2.40;;
20324;SDS011;10320;49.482;11.256;2023-05-29T12:23:04;2.75;;;2.50;;
20324;SDS011;10320;49.482;11.256;2023-05-29T12:25:30;2.80;;;2.30;;
20324;SDS011;10320;49.482;11.256;2023-05-29T12:27:57;3.08;;;2.38;;
20324;SDS011;10320;49.482;11.256;2023-05-29T12:30:23;2.35;;;2.15;;
20324;SDS011;10320;49.482;11.256;2023-05-29T12:32:50;3.10;;;2.80;;
20324;SDS011;10320;49.482;11.256;2023-05-29T12:35:27;2.85;;;2.65;;
20324;SDS011;10320;49.482;11.256;2023-05-29T12:37:57;2.55;;;2.35;;
20324;SDS011;10320;49.482;11.256;2023-05-29T12:40:24;5.00;;;2.40;;
20324;SDS011;10320;49.482;11.256;2023-05-29T12:42:54;2.63;;;2.30;;
20324;SDS011;10320;49.482;11.256;2023-05-29T12:45:24;2.63;;;2.42;;
20324;SDS011;10320;49.482;11.256;2023-05-29T12:47:54;2.30;;;2.10;;
20324;SDS011;10320;49.482;11.256;2023-05-29T12:50:27;2.88;;;2.63;;
20324;SDS011;10320;49.482;11.256;2023-05-29T12:53:03;2.58;;;2.38;;
20324;SDS011;10320;49.482;11.256;2023-05-29T12:55:39;2.88;;;2.38;;
20324;SDS011;10320;49.482;11.256;2023-05-29T12:58:06;3.30;;;2.20;;
20324;SDS011;10320;49.482;11.256;2023-05-29T13:00:33;2.35;;;2.13;;
20324;SDS011;10320;49.482;11.256;2023-05-29T13:03:00;3.85;;;2.40;;
20324;SDS011;10320;49.482;11.256;2023-05-29T13:05:26;2.63;;;2.40;;
20324;SDS011;10320;49.482;11.256;2023-05-29T13:07:52;4.20;;;2.97;;
20324;SDS011;10320;49.482;11.256;2023-05-29T13:10:19;3.13;;;2.30;;
20324;SDS011;10320;49.482;11.256;2023-05-29T13:12:45;2.78;;;2.50;;
20324;SDS011;10320;49.482;11.256;2023-05-29T13:15:12;2.70;;;2.40;;
20324;SDS011;10320;49.482;11.256;2023-05-29T13:17:39;2.72;;;2.33;;
20324;SDS011;10320;49.482;11.256;2023-05-29T13:20:14;2.63;;;2.42;;
20324;SDS011;10320;49.482;11.256;2023-05-29T13:22:41;3.10;;;2.30;;
20324;SDS011;10320;49.482;11.256;2023-05-29T13:25:08;2.45;;;2.25;;
20324;SDS011;10320;49.482;11.256;2023-05-29T13:27:35;2.55;;;2.35;;
20324;SDS011;10320;49.482;11.256;2023-05-29T13:30:01;2.80;;;2.05;;
20324;SDS011;10320;49.482;11.256;2023-05-29T13:32:27;2.35;;;2.10;;
20324;SDS011;10320;49.482;11.256;2023-05-29T13:34:53;4.28;;;2.50;;
20324;SDS011;10320;49.482;11.256;2023-05-29T13:37:20;2.63;;;2.42;;
20324;SDS011;10320;49.482;11.256;2023-05-29T13:39:46;2.90;;;2.50;;
20324;SDS011;10320;49.482;11.256;2023-05-29T13:42:12;4.30;;;2.50;;
20324;SDS011;10320;49.482;11.256;2023-05-29T13:44:38;3.17;;;2.47;;
20324;SDS011;10320;49.482;11.256;2023-05-29T13:47:05;2.78;;;2.20;;
20324;SDS011;10320;49.482;11.256;2023-05-29T13:49:31;2.70;;;2.42;;
20324;SDS011;10320;49.482;11.256;2023-05-29T13:51:57;2.58;;;2.15;;
20324;SDS011;10320;49.482;11.256;2023-05-29T13:54:23;2.67;;;2.47;;
20324;SDS011;10320;49.482;11.256;2023-05-29T13:56:50;3.50;;;2.83;;
20324;SDS011;10320;49.482;11.256;2023-05-29T13:59:16;2.50;;;2.30;;
20324;SDS011;10320;49.482;11.256;2023-05-29T14:01:42;5.72;;;5.22;;
20324;SDS011;10320;49.482;11.256;2023-05-29T14:04:08;2.78;;;2.25;;
20324;SDS011;10320;49.482;11.256;2023-05-29T14:06:34;2.92;;;2.50;;
20324;SDS011;10320;49.482;11.256;2023-05-29T14:09:02;2.97;;;2.40;;
20324;SDS011;10320;49.482;11.256;2023-05-29T14:11:28;2.97;;;2.10;;
20324;SDS011;10320;49.482;11.256;2023-05-29T14:13:54;2.35;;;2.10;;
20324;SDS011;10320;49.482;11.256;2023-05-29T14:16:20;2.53;;;2.33;;
20324;SDS011;10320;49.482;11.256;2023-05-29T14:18:47;2.30;;;2.10;;
20324;SDS011;10320;49.482;11.256;2023-05-29T14:21:13;2.35;;;2.15;;
20324;SDS011;10320;49.482;11.256;2023-05-29T14:23:39;2.40;;;2.20;;
20324;SDS011;10320;49.482;11.256;2023-05-29T14:26:05;2.45;;;2.25;;
20324;SDS011;10320;49.482;11.256;2023-05-29T14:28:32;2.47;;;2.28;;
20324;SDS011;10320;49.482;11.256;2023-05-29T14:30:58;4.78;;;2.67;;
20324;SDS011;10320;49.482;11.256;2023-05-29T14:33:24;2.60;;;2.40;;
20324;SDS011;10320;49.482;11.256;2023-05-29T14:35:50;2.50;;;2.30;;
20324;SDS011;10320;49.482;11.256;2023-05-29T14:38:16;2.25;;;2.10;;
20324;SDS011;10320;49.482;11.256;2023-05-29T14:40:42;2.40;;;2.20;;
20324;SDS011;10320;49.482;11.256;2023-05-29T14:43:08;2.42;;;2.22;;
20324;SDS011;10320;49.482;11.256;2023-05-29T14:45:34;2.53;;;2.25;;
20324;SDS011;10320;49.482;11.256;2023-05-29T14:48:00;2.50;;;2.30;;
20324;SDS011;10320;49.482;11.256;2023-05-29T14:50:27;2.40;;;2.20;;
20324;SDS011;10320;49.482;11.256;2023-05-29T14:52:53;3.22;;;2.40;;
20324;SDS011;10320;49.482;11.256;2023-05-29T14:55:19;3.00;;;2.38;;
20324;SDS011;10320;49.482;11.256;2023-05-29T14:57:45;2.60;;;2.40;;
20324;SDS011;10320;49.482;11.256;2023-05-29T15:00:11;3.45;;;2.47;;